createdAt,value
2023-04-21T00:01:47.779Z,94719.50
2023-04-21T00:04:16.603Z,94673.94
2023-04-21T00:06:47.416Z,94711.69
2023-04-21T00:09:15.337Z,94713.66
2023-04-21T00:11:43.268Z,94705.06
2023-04-21T00:14:11.336Z,94714.84
2023-04-21T00:16:39.473Z,94715.72
2023-04-21T00:19:08.636Z,94707.34
2023-04-21T00:21:39.634Z,94715.88
2023-04-21T00:24:10.916Z,94700.09
2023-04-21T00:26:39.008Z,94701.53
2023-04-21T00:29:07.016Z,94706.66
2023-04-21T00:31:35.296Z,94716.81
2023-04-21T00:34:03.575Z,94712.31
2023-04-21T00:36:33.748Z,94694.50
2023-04-21T00:39:01.858Z,94720.06
2023-04-21T00:41:31.185Z,94718.69
2023-04-21T00:44:02.202Z,94708.94
2023-04-21T00:46:31.712Z,94718.84
2023-04-21T00:49:00.831Z,94714.31
2023-04-21T00:51:30.287Z,94711.31
2023-04-21T00:53:58.419Z,94705.28
2023-04-21T00:56:27.491Z,94703.22
2023-04-21T00:58:59.059Z,94703.78
2023-04-21T01:01:30.281Z,94707.69
2023-04-21T01:04:00.318Z,94703.94
2023-04-21T01:06:32.373Z,94685.63
2023-04-21T01:09:00.482Z,94678.63
2023-04-21T01:11:28.552Z,94688.22
2023-04-21T01:13:58.165Z,94700.28
2023-04-21T01:16:27.064Z,94699.97
2023-04-21T01:18:55.464Z,94697.63
2023-04-21T01:21:23.807Z,94686.75
2023-04-21T01:23:53.755Z,94701.53
2023-04-21T01:26:22.777Z,94703.91
2023-04-21T01:28:51.535Z,94690.75
2023-04-21T01:31:22.711Z,94711.25
2023-04-21T01:33:51.480Z,94700.38
2023-04-21T01:36:20.105Z,94698.19
2023-04-21T01:38:49.034Z,94704.13
2023-04-21T01:41:20.300Z,94703.56
2023-04-21T01:43:48.534Z,94663.81
2023-04-21T01:46:16.754Z,94699.66
2023-04-21T01:48:45.263Z,94692.88
2023-04-21T01:51:13.635Z,94688.38
2023-04-21T01:53:41.888Z,94691.69
2023-04-21T01:56:10.194Z,94691.13
2023-04-21T01:58:39.971Z,94695.00
2023-04-21T02:01:07.986Z,94691.13
2023-04-21T02:03:37.060Z,94694.56
2023-04-21T02:06:06.394Z,94698.66
2023-04-21T02:08:34.852Z,94680.84
2023-04-21T02:11:03.247Z,94691.63
2023-04-21T02:13:31.472Z,94685.03
2023-04-21T02:16:12.687Z,94684.31
2023-04-21T02:18:41.807Z,94678.22
2023-04-21T02:21:09.709Z,94682.78
2023-04-21T02:23:37.739Z,94687.88
2023-04-21T02:26:05.926Z,94687.25
2023-04-21T02:28:34.028Z,94677.34
2023-04-21T02:31:03.495Z,94677.22
2023-04-21T02:33:32.287Z,94680.59
2023-04-21T02:36:03.115Z,94680.34
2023-04-21T02:38:31.625Z,94684.91
2023-04-21T02:40:59.737Z,94680.91
2023-04-21T02:43:28.030Z,94673.41
2023-04-21T02:45:55.998Z,94664.63
2023-04-21T02:48:25.503Z,94663.13
2023-04-21T02:50:54.272Z,94680.47
2023-04-21T02:53:22.461Z,94681.00
2023-04-21T02:55:50.385Z,94681.84
2023-04-21T02:58:18.650Z,94692.59
2023-04-21T03:00:46.843Z,94683.44
2023-04-21T03:03:17.132Z,94675.06
2023-04-21T03:05:46.698Z,94610.84
2023-04-21T03:08:15.206Z,94666.44
2023-04-21T03:10:43.381Z,94671.91
2023-04-21T03:13:11.846Z,94677.16
2023-04-21T03:15:39.956Z,94681.81
2023-04-21T03:18:08.185Z,94681.38
2023-04-21T03:20:36.457Z,94685.91
2023-04-21T03:23:05.926Z,94688.69
2023-04-21T03:25:33.950Z,94677.06
2023-04-21T03:28:02.203Z,94676.34
2023-04-21T03:30:30.248Z,94676.91
2023-04-21T03:32:58.901Z,94680.88
2023-04-21T03:35:28.582Z,94687.50
2023-04-21T03:37:57.240Z,94694.34
2023-04-21T03:40:26.884Z,94692.97
2023-04-21T03:42:55.150Z,94688.84
2023-04-21T03:45:24.260Z,94685.06
2023-04-21T03:47:57.186Z,94682.78
2023-04-21T03:50:25.608Z,94695.25
2023-04-21T03:52:54.895Z,94706.25
2023-04-21T03:55:23.232Z,94702.13
2023-04-21T03:57:52.960Z,94707.84
2023-04-21T04:00:22.379Z,94707.50
2023-04-21T04:02:51.772Z,94701.84
2023-04-21T04:05:19.898Z,94721.31
2023-04-21T04:07:49.119Z,94701.97
2023-04-21T04:10:17.470Z,94714.38
2023-04-21T04:12:45.573Z,94714.91
2023-04-21T04:15:15.174Z,94715.97
2023-04-21T04:17:44.530Z,94713.97
2023-04-21T04:20:12.884Z,94719.34
2023-04-21T04:22:40.998Z,94700.13
2023-04-21T04:25:09.754Z,94725.03
2023-04-21T04:27:39.079Z,94725.47
2023-04-21T04:30:08.729Z,94728.16
2023-04-21T04:32:39.966Z,94716.06
2023-04-21T04:35:08.992Z,94727.38
2023-04-21T04:37:38.734Z,94734.63
2023-04-21T04:40:10.310Z,94709.41
2023-04-21T04:42:39.749Z,94743.88
2023-04-21T04:45:09.418Z,94748.63
2023-04-21T04:47:39.364Z,94733.72
2023-04-21T04:50:08.733Z,94749.00
2023-04-21T04:52:36.926Z,94749.63
2023-04-21T04:55:06.175Z,94758.03
2023-04-21T04:57:34.517Z,94747.78
2023-04-21T05:00:02.531Z,94745.16
2023-04-21T05:02:30.894Z,94753.56
2023-04-21T05:05:00.700Z,94749.44
2023-04-21T05:07:28.869Z,94713.13
2023-04-21T05:09:57.413Z,94756.81
2023-04-21T05:12:25.902Z,94747.78
2023-04-21T05:14:54.400Z,94744.84
2023-04-21T05:17:22.499Z,94750.56
2023-04-21T05:19:50.502Z,94735.53
2023-04-21T05:22:19.806Z,94740.72
2023-04-21T05:24:50.126Z,94709.22
2023-04-21T05:27:18.124Z,94749.22
2023-04-21T05:29:46.102Z,94744.13
2023-04-21T05:32:14.557Z,94626.25
2023-04-21T05:34:42.660Z,94705.38
2023-04-21T05:37:12.407Z,94739.75
2023-04-21T05:39:42.435Z,94751.47
2023-04-21T05:42:11.361Z,94749.25
2023-04-21T05:44:39.379Z,94743.31
2023-04-21T05:47:08.020Z,94751.63
2023-04-21T05:49:36.394Z,94733.75
2023-04-21T05:52:06.615Z,94741.50
2023-04-21T05:54:34.589Z,94731.31
2023-04-21T05:57:04.237Z,94727.34
2023-04-21T05:59:32.131Z,94721.34
2023-04-21T06:02:00.183Z,94721.38
2023-04-21T06:04:28.423Z,94721.97
2023-04-21T06:06:56.764Z,94720.53
2023-04-21T06:09:26.997Z,94711.22
2023-04-21T06:11:55.351Z,94707.94
2023-04-21T06:14:25.014Z,94707.41
2023-04-21T06:16:53.118Z,94715.63
2023-04-21T06:19:22.054Z,94724.09
2023-04-21T06:21:50.072Z,94718.94
2023-04-21T06:24:25.070Z,94711.91
2023-04-21T06:26:53.767Z,94719.38
2023-04-21T06:29:22.089Z,94729.81
2023-04-21T06:31:51.694Z,94716.41
2023-04-21T06:34:21.163Z,94717.38
2023-04-21T06:36:49.326Z,94707.84
2023-04-21T06:39:17.565Z,94722.19
2023-04-21T06:41:45.821Z,94718.19
2023-04-21T06:44:14.401Z,94707.44
2023-04-21T06:46:42.652Z,94707.84
2023-04-21T06:49:13.220Z,94677.47
2023-04-21T06:51:41.183Z,94714.19
2023-04-21T06:54:09.224Z,94678.59
2023-04-21T06:56:37.572Z,94710.00
2023-04-21T06:59:05.457Z,94709.56
2023-04-21T07:01:33.621Z,94695.69
2023-04-21T07:04:01.827Z,94690.88
2023-04-21T07:06:32.077Z,94700.81
2023-04-21T07:09:00.206Z,94698.09
2023-04-21T07:11:30.984Z,94664.81
2023-04-21T07:14:02.285Z,94705.03
2023-04-21T07:16:30.486Z,94710.50
2023-04-21T07:18:59.223Z,94703.06
2023-04-21T07:21:27.501Z,94694.59
2023-04-21T07:23:56.892Z,94705.06
2023-04-21T07:26:25.230Z,94693.34
2023-04-21T07:28:53.686Z,94704.78
2023-04-21T07:31:21.887Z,94708.03
2023-04-21T07:33:49.967Z,94703.03
2023-04-21T07:36:18.536Z,94695.56
2023-04-21T07:38:46.866Z,94692.59
2023-04-21T07:41:16.328Z,94700.78
2023-04-21T07:43:44.280Z,94700.06
2023-04-21T07:46:13.554Z,94690.88
2023-04-21T07:48:42.344Z,94705.28
2023-04-21T07:51:10.284Z,94707.31
2023-04-21T07:53:39.746Z,94689.13
2023-04-21T07:56:08.838Z,94693.59
2023-04-21T07:58:38.516Z,94702.31
2023-04-21T08:01:09.904Z,94706.06
2023-04-21T08:03:39.769Z,94702.28
2023-04-21T08:06:09.204Z,94707.53
2023-04-21T08:08:37.325Z,94709.03
2023-04-21T08:11:05.353Z,94704.78
2023-04-21T08:13:41.486Z,94708.75
2023-04-21T08:16:11.044Z,94693.88
2023-04-21T08:18:39.636Z,94699.56
2023-04-21T08:21:07.997Z,94694.84
2023-04-21T08:23:36.241Z,94685.66
2023-04-21T08:26:05.245Z,94646.94
2023-04-21T08:28:33.408Z,94699.09
2023-04-21T08:31:05.053Z,94707.03
2023-04-21T08:33:35.518Z,94704.53
2023-04-21T08:36:12.331Z,94706.28
2023-04-21T08:38:46.467Z,94701.06
2023-04-21T08:41:14.929Z,94697.09
2023-04-21T08:43:43.559Z,94697.84
2023-04-21T08:46:11.601Z,94698.34
2023-04-21T08:48:41.468Z,94691.63
2023-04-21T08:51:11.291Z,94694.63
2023-04-21T08:53:42.274Z,94662.81
2023-04-21T08:56:11.901Z,94693.88
2023-04-21T08:58:41.788Z,94685.66
2023-04-21T09:01:10.037Z,94685.66
2023-04-21T09:03:38.373Z,94685.84
2023-04-21T09:06:10.325Z,94669.56
2023-04-21T09:08:40.809Z,94686.63
2023-04-21T09:11:08.878Z,94677.44
2023-04-21T09:13:38.380Z,94671.88
2023-04-21T09:16:16.485Z,94635.44
2023-04-21T09:18:45.534Z,94665.66
2023-04-21T09:21:18.366Z,94672.28
2023-04-21T09:23:48.346Z,94665.56
2023-04-21T09:26:17.216Z,94626.81
2023-04-21T09:28:46.392Z,94657.91
2023-04-21T09:31:29.117Z,94654.50
2023-04-21T09:34:01.032Z,94656.31
2023-04-21T09:36:32.302Z,94650.63
2023-04-21T09:41:36.278Z,94663.78
2023-04-21T09:44:05.244Z,94658.09
2023-04-21T09:46:36.297Z,94659.34
2023-04-21T09:49:05.807Z,94639.97
2023-04-21T09:52:05.759Z,94640.44
2023-04-21T09:54:31.922Z,94645.56
2023-04-21T09:57:02.996Z,94635.69
2023-04-21T09:59:34.359Z,94637.94
2023-04-21T10:02:05.966Z,94636.19
2023-04-21T10:04:36.428Z,94631.47
2023-04-21T10:07:06.698Z,94625.50
2023-04-21T10:09:41.333Z,94633.66
2023-04-21T10:12:11.399Z,94626.94
2023-04-21T10:14:39.613Z,94585.22
2023-04-21T10:17:09.221Z,94629.97
2023-04-21T10:19:40.215Z,94618.19
2023-04-21T10:22:10.537Z,94623.47
2023-04-21T10:24:41.013Z,94617.97
2023-04-21T10:27:12.618Z,94617.53
2023-04-21T10:29:55.605Z,94631.75
2023-04-21T10:32:42.703Z,94622.09
2023-04-21T10:35:12.208Z,94622.56
2023-04-21T10:37:42.926Z,94621.09
2023-04-21T10:40:44.123Z,94616.38
2023-04-21T10:43:48.958Z,94615.63
2023-04-21T10:46:34.087Z,94618.13
2023-04-21T10:49:10.235Z,94628.28
2023-04-21T10:52:07.017Z,94607.44
2023-04-21T10:54:43.729Z,94614.56
2023-04-21T10:57:13.710Z,94610.28
2023-04-21T10:59:42.030Z,94608.81
2023-04-21T11:02:15.360Z,94622.88
2023-04-21T11:04:48.955Z,94615.38
2023-04-21T11:07:18.909Z,94614.78
2023-04-21T11:09:51.295Z,94612.97
2023-04-21T11:12:20.307Z,94615.22
2023-04-21T11:14:49.149Z,94615.81
2023-04-21T11:17:19.241Z,94622.09
2023-04-21T11:19:48.119Z,94615.63
2023-04-21T11:22:18.016Z,94626.56
2023-04-21T11:24:47.051Z,94622.56
2023-04-21T11:27:16.428Z,94618.59
2023-04-21T11:29:46.055Z,94621.09
2023-04-21T11:32:16.599Z,94614.66
2023-04-21T11:34:44.744Z,94615.63
2023-04-21T11:37:18.128Z,94609.16
2023-04-21T11:39:46.086Z,94607.34
2023-04-21T11:42:23.653Z,94620.50
2023-04-21T11:44:51.598Z,94575.88
2023-04-21T11:47:22.677Z,94624.56
2023-04-21T11:49:54.764Z,94619.13
2023-04-21T11:52:27.018Z,94625.06
2023-04-21T11:55:01.010Z,94614.16
2023-04-21T11:57:32.591Z,94610.41
2023-04-21T12:00:01.569Z,94608.41
2023-04-21T12:02:31.929Z,94609.66
2023-04-21T12:05:04.922Z,94606.94
2023-04-21T12:07:34.051Z,94552.84
2023-04-21T12:10:03.072Z,94611.13
2023-04-21T12:12:33.461Z,94598.22
2023-04-21T12:15:04.602Z,94610.09
2023-04-21T12:17:39.118Z,94618.06
2023-04-21T12:20:08.536Z,94615.84
2023-04-21T12:22:36.732Z,94610.59
2023-04-21T12:25:06.072Z,94629.69
2023-04-21T12:27:35.813Z,94618.53
2023-04-21T12:30:04.439Z,94541.59
2023-04-21T12:32:32.712Z,94612.56
2023-04-21T12:35:03.444Z,94621.50
2023-04-21T12:37:32.027Z,94621.88
2023-04-21T12:40:00.372Z,94624.97
2023-04-21T12:42:28.375Z,94618.84
2023-04-21T12:44:58.180Z,94614.06
2023-04-21T12:47:26.467Z,94615.56
2023-04-21T12:49:54.945Z,94611.59
2023-04-21T12:52:22.933Z,94611.63
2023-04-21T12:54:50.955Z,94613.09
2023-04-21T12:57:19.028Z,94607.19
2023-04-21T12:59:47.433Z,94607.69
2023-04-21T13:02:17.167Z,94580.88
2023-04-21T13:04:47.099Z,94608.69
2023-04-21T13:07:16.285Z,94601.94
2023-04-21T13:09:44.521Z,94586.53
2023-04-21T13:12:12.785Z,94596.09
2023-04-21T13:14:40.919Z,94583.78
2023-04-21T13:17:08.985Z,94609.84
2023-04-21T13:19:38.498Z,94598.16
2023-04-21T13:22:06.533Z,94593.72
2023-04-21T13:24:35.034Z,94598.69
2023-04-21T13:27:03.187Z,94602.91
2023-04-21T13:29:34.620Z,94601.22
2023-04-21T13:32:03.303Z,94585.84
2023-04-21T13:34:32.361Z,94590.28
2023-04-21T13:37:02.834Z,94591.25
2023-04-21T13:39:31.139Z,94590.97
2023-04-21T13:41:59.418Z,94578.88
2023-04-21T13:44:27.632Z,94599.00
2023-04-21T13:46:57.646Z,94596.25
2023-04-21T13:49:25.742Z,94597.97
2023-04-21T13:51:53.849Z,94573.91
2023-04-21T13:54:23.181Z,94601.22
2023-04-21T13:56:51.337Z,94593.53
2023-04-21T13:59:21.318Z,94602.22
2023-04-21T14:01:49.368Z,94594.00
2023-04-21T14:04:17.570Z,94589.53
2023-04-21T14:06:48.029Z,94586.81
2023-04-21T14:09:16.324Z,94593.53
2023-04-21T14:11:45.831Z,94580.84
2023-04-21T14:14:16.938Z,94574.13
2023-04-21T14:16:49.921Z,94582.34
2023-04-21T14:19:18.148Z,94569.19
2023-04-21T14:21:46.189Z,94569.94
2023-04-21T14:24:14.670Z,94562.00
2023-04-21T14:26:42.738Z,94567.44
2023-04-21T14:29:12.370Z,94558.50
2023-04-21T14:31:40.612Z,94523.78
2023-04-21T14:34:08.627Z,94561.50
2023-04-21T14:36:38.678Z,94562.75
2023-04-21T14:39:06.675Z,94563.75
2023-04-21T14:41:34.627Z,94557.03
2023-04-21T14:44:05.190Z,94553.06
2023-04-21T14:46:35.737Z,94561.00
2023-04-21T14:49:06.121Z,94560.22
2023-04-21T14:51:34.247Z,94566.44
2023-04-21T14:54:03.856Z,94556.03
2023-04-21T14:56:32.040Z,94565.47
2023-04-21T14:59:00.191Z,94566.22
2023-04-21T15:01:28.312Z,94573.69
2023-04-21T15:04:00.186Z,94557.53
2023-04-21T15:06:28.406Z,94558.03
2023-04-21T15:08:56.561Z,94572.44
2023-04-21T15:11:24.534Z,94558.00
2023-04-21T15:13:52.725Z,94576.72
2023-04-21T15:16:20.890Z,94582.69
2023-04-21T15:18:49.172Z,94569.41
2023-04-21T15:21:20.241Z,94587.00
2023-04-21T15:23:48.301Z,94580.13
2023-04-21T15:28:44.273Z,94574.34
2023-04-21T15:31:14.741Z,94585.38
2023-04-21T15:33:42.915Z,94558.19
2023-04-21T15:36:11.078Z,94577.69
2023-04-21T15:38:41.023Z,94576.97
2023-04-21T15:41:09.237Z,94565.84
2023-04-21T15:43:37.582Z,94539.53
2023-04-21T15:46:13.502Z,94568.59
2023-04-21T15:48:42.377Z,94571.81
2023-04-21T15:51:11.153Z,94572.56
2023-04-21T15:53:47.559Z,94564.13
2023-04-21T15:56:15.992Z,94536.59
2023-04-21T15:58:44.452Z,94573.59
2023-04-21T16:01:14.961Z,94583.75
2023-04-21T16:03:44.475Z,94580.31
2023-04-21T16:06:12.762Z,94580.53
2023-04-21T16:08:44.836Z,94588.94
2023-04-21T16:11:12.925Z,94585.19
2023-04-21T16:13:41.066Z,94578.50
2023-04-21T16:16:09.427Z,94581.22
2023-04-21T16:18:37.493Z,94581.69
2023-04-21T16:21:05.951Z,94588.59
2023-04-21T16:23:34.071Z,94584.59
2023-04-21T16:26:05.983Z,94587.56
2023-04-21T16:28:34.057Z,94582.06
2023-04-21T16:31:02.096Z,94581.00
2023-04-21T16:33:30.040Z,94595.53
2023-04-21T16:35:58.250Z,94553.69
2023-04-21T16:38:26.898Z,94605.13
2023-04-21T16:40:54.863Z,94595.69
2023-04-21T16:43:24.564Z,94597.13
2023-04-21T16:45:52.764Z,94599.31
2023-04-21T16:48:20.818Z,94568.94
2023-04-21T16:50:48.964Z,94610.88
2023-04-21T16:53:18.491Z,94609.13
2023-04-21T16:55:46.530Z,94603.34
2023-04-21T16:58:14.473Z,94605.47
2023-04-21T17:00:44.049Z,94607.72
2023-04-21T17:03:12.203Z,94613.34
2023-04-21T17:05:40.353Z,94609.03
2023-04-21T17:08:08.423Z,94611.94
2023-04-21T17:10:36.556Z,94613.28
2023-04-21T17:13:06.342Z,94604.06
2023-04-21T17:15:34.504Z,94612.34
2023-04-21T17:18:03.986Z,94610.41
2023-04-21T17:20:32.107Z,94619.78
2023-04-21T17:23:00.069Z,94615.31
2023-04-21T17:25:28.255Z,94619.72
2023-04-21T17:27:56.925Z,94624.88
2023-04-21T17:30:25.014Z,94614.56
2023-04-21T17:33:04.173Z,94623.03
2023-04-21T17:35:41.616Z,94622.00
2023-04-21T17:38:18.056Z,94632.34
2023-04-21T17:40:46.164Z,94631.16
2023-04-21T17:43:14.342Z,94633.88
2023-04-21T17:45:43.385Z,94638.75
2023-04-21T17:48:11.532Z,94629.56
2023-04-21T17:50:40.959Z,94638.19
2023-04-21T17:53:09.087Z,94641.63
2023-04-21T17:55:37.137Z,94648.69
2023-04-21T17:58:05.032Z,94660.72
2023-04-21T18:00:34.548Z,94656.50
2023-04-21T18:03:03.304Z,94659.16
2023-04-21T18:05:31.484Z,94625.84
2023-04-21T18:08:02.260Z,94667.03
2023-04-21T18:10:30.802Z,94663.75
2023-04-21T18:12:59.525Z,94652.47
2023-04-21T18:15:27.518Z,94663.63
2023-04-21T18:17:55.693Z,94673.34
2023-04-21T18:20:23.714Z,94663.38
2023-04-21T18:22:52.295Z,94685.19
2023-04-21T18:25:40.839Z,94690.59
2023-04-21T18:28:14.202Z,94697.34
2023-04-21T18:30:42.432Z,94688.66
2023-04-21T18:33:11.775Z,94694.19
2023-04-21T18:35:40.258Z,94692.47
2023-04-21T18:38:10.593Z,94703.34
2023-04-21T18:40:40.922Z,94696.97
2023-04-21T18:43:10.018Z,94697.91
2023-04-21T18:45:38.789Z,94595.28
2023-04-21T18:48:08.736Z,94695.00
2023-04-21T18:50:40.321Z,94702.22
2023-04-21T18:53:09.349Z,94704.16
2023-04-21T18:55:39.209Z,94703.69
2023-04-21T18:58:07.725Z,94700.53
2023-04-21T19:00:39.336Z,94707.94
2023-04-21T19:03:09.702Z,94708.19
2023-04-21T19:05:40.619Z,94708.97
2023-04-21T19:08:10.999Z,94711.56
2023-04-21T19:10:40.752Z,94712.50
2023-04-21T19:13:09.035Z,94713.25
2023-04-21T19:15:37.434Z,94708.56
2023-04-21T19:18:06.773Z,94714.09
2023-04-21T19:20:37.546Z,94718.50
2023-04-21T19:23:05.866Z,94710.28
2023-04-21T19:25:37.007Z,94706.91
2023-04-21T19:28:07.946Z,94718.31
2023-04-21T19:30:35.880Z,94721.59
2023-04-21T19:33:05.497Z,94716.06
2023-04-21T19:35:33.787Z,94722.25
2023-04-21T19:38:02.286Z,94717.00
2023-04-21T19:40:31.035Z,94715.78
2023-04-21T19:42:59.840Z,94719.34
2023-04-21T19:45:29.184Z,94725.03
2023-04-21T19:47:57.348Z,94721.50
2023-04-21T19:50:25.682Z,94714.75
2023-04-21T19:52:53.501Z,94695.75
2023-04-21T19:55:21.542Z,94702.97
2023-04-21T19:57:49.839Z,94680.88
2023-04-21T20:00:18.326Z,94711.41
2023-04-21T20:02:47.808Z,94716.81
2023-04-21T20:05:16.013Z,94712.22
2023-04-21T20:07:44.503Z,94720.75
2023-04-21T20:10:13.827Z,94717.53
2023-04-21T20:12:41.962Z,94716.81
2023-04-21T20:15:11.965Z,94717.69
2023-04-21T20:17:40.130Z,94727.16
2023-04-21T20:20:11.171Z,94716.19
2023-04-21T20:22:39.540Z,94731.34
2023-04-21T20:25:08.410Z,94729.50
2023-04-21T20:27:36.573Z,94731.69
2023-04-21T20:30:05.364Z,94707.69
2023-04-21T20:32:33.902Z,94736.56
2023-04-21T20:35:02.338Z,94737.63
2023-04-21T20:37:33.604Z,94739.44
2023-04-21T20:40:04.569Z,94738.19
2023-04-21T20:42:33.421Z,94745.13
2023-04-21T20:45:02.341Z,94739.44
2023-04-21T20:47:30.539Z,94745.22
2023-04-21T20:49:59.194Z,94743.00
2023-04-21T20:52:27.309Z,94740.16
2023-04-21T20:54:56.834Z,94744.31
2023-04-21T20:57:27.041Z,94734.75
2023-04-21T20:59:55.318Z,94750.44
2023-04-21T21:02:23.617Z,94754.06
2023-04-21T21:04:51.905Z,94742.63
2023-04-21T21:07:19.990Z,94758.13
2023-04-21T21:09:48.055Z,94766.44
2023-04-21T21:12:17.555Z,94762.72
2023-04-21T21:14:45.508Z,94769.66
2023-04-21T21:17:16.548Z,94775.69
2023-04-21T21:19:44.620Z,94789.22
2023-04-21T21:22:12.776Z,94780.41
2023-04-21T21:24:41.015Z,94784.72
2023-04-21T21:27:09.286Z,94763.13
2023-04-21T21:29:38.807Z,94774.81
2023-04-21T21:32:07.271Z,94768.50
2023-04-21T21:34:35.342Z,94770.91
2023-04-21T21:37:05.086Z,94774.06
2023-04-21T21:39:33.662Z,94777.22
2023-04-21T21:42:02.444Z,94772.28
2023-04-21T21:44:30.320Z,94778.16
2023-04-21T21:46:59.940Z,94769.72
2023-04-21T21:49:27.863Z,94733.09
2023-04-21T21:51:55.998Z,94773.63
2023-04-21T21:54:24.168Z,94763.69
2023-04-21T21:56:52.305Z,94779.16
2023-04-21T21:59:20.817Z,94782.44
2023-04-21T22:01:49.892Z,94779.28
2023-04-21T22:04:19.227Z,94779.88
2023-04-21T22:06:47.333Z,94785.00
2023-04-21T22:09:15.578Z,94776.31
2023-04-21T22:11:44.873Z,94785.03
2023-04-21T22:14:22.778Z,94793.13
2023-04-21T22:16:53.214Z,94786.81
2023-04-21T22:19:22.883Z,94788.03
2023-04-21T22:21:50.931Z,94783.06
2023-04-21T22:24:19.485Z,94793.28
2023-04-21T22:26:48.556Z,94786.25
2023-04-21T22:29:16.648Z,94790.41
2023-04-21T22:31:45.202Z,94783.81
2023-04-21T22:34:15.207Z,94787.72
2023-04-21T22:36:48.006Z,94794.34
2023-04-21T22:39:15.939Z,94793.00
2023-04-21T22:41:44.235Z,94791.94
2023-04-21T22:44:12.418Z,94800.97
2023-04-21T22:46:41.226Z,94789.22
2023-04-21T22:49:09.679Z,94791.34
2023-04-21T22:51:38.242Z,94795.25
2023-04-21T22:54:07.869Z,94806.91
2023-04-21T22:56:35.941Z,94793.84
2023-04-21T22:59:04.157Z,94802.41
2023-04-21T23:01:32.501Z,94798.19
2023-04-21T23:04:00.840Z,94805.69
2023-04-21T23:06:29.109Z,94804.63
2023-04-21T23:08:57.427Z,94803.16
2023-04-21T23:11:26.924Z,94804.19
2023-04-21T23:13:56.268Z,94797.31
2023-04-21T23:16:24.540Z,94800.31
2023-04-21T23:18:52.730Z,94789.78
2023-04-21T23:21:21.111Z,94792.78
2023-04-21T23:23:50.421Z,94789.47
2023-04-21T23:26:18.410Z,94792.44
2023-04-21T23:28:48.155Z,94801.13
2023-04-21T23:31:16.252Z,94783.41
2023-04-21T23:33:44.557Z,94793.94
2023-04-21T23:36:12.512Z,94790.66
2023-04-21T23:38:40.770Z,94795.44
2023-04-21T23:41:08.702Z,94759.38
2023-04-21T23:43:37.298Z,94788.13
2023-04-21T23:46:07.944Z,94788.00
2023-04-21T23:48:36.100Z,94781.38
2023-04-21T23:51:04.181Z,94781.25
2023-04-21T23:53:32.255Z,94786.50
2023-04-21T23:56:00.725Z,94777.16
2023-04-21T23:58:28.745Z,94775.38
